createdAt,value
2022-11-20T00:02:17.789Z,1.28
2022-11-20T00:05:20.444Z,1.30
2022-11-20T00:08:22.356Z,1.22
2022-11-20T00:11:26.325Z,1.10
2022-11-20T00:14:28.242Z,1.19
2022-11-20T00:17:30.431Z,1.28
2022-11-20T00:20:32.421Z,1.32
2022-11-20T00:23:34.696Z,1.24
2022-11-20T00:26:36.689Z,1.21
2022-11-20T00:29:38.860Z,1.22
2022-11-20T00:32:40.788Z,1.34
2022-11-20T00:35:43.083Z,1.32
2022-11-20T00:38:45.336Z,1.08
2022-11-20T00:41:47.513Z,1.08
2022-11-20T00:44:49.411Z,1.25
2022-11-20T00:47:51.647Z,1.00
2022-11-20T00:50:54.335Z,0.94
2022-11-20T00:53:57.502Z,1.05
2022-11-20T00:56:59.386Z,1.11
2022-11-20T01:00:01.513Z,1.08
2022-11-20T01:03:03.413Z,1.02
2022-11-20T01:06:11.012Z,0.99
2022-11-20T01:09:14.008Z,1.04
2022-11-20T01:12:16.204Z,0.89
2022-11-20T01:15:18.167Z,0.82
2022-11-20T01:18:20.300Z,0.96
2022-11-20T01:21:23.397Z,0.78
2022-11-20T01:24:25.697Z,0.92
2022-11-20T01:27:27.601Z,0.88
2022-11-20T01:30:29.812Z,0.95
2022-11-20T01:33:31.678Z,1.09
2022-11-20T01:36:34.713Z,1.10
2022-11-20T01:39:36.616Z,1.15
2022-11-20T01:42:57.485Z,1.05
2022-11-20T01:46:02.428Z,1.10
2022-11-20T01:49:08.841Z,1.13
2022-11-20T01:52:14.717Z,1.10
2022-11-20T01:55:23.136Z,1.19
2022-11-20T01:58:28.644Z,1.09
2022-11-20T02:01:30.921Z,1.12
2022-11-20T02:04:33.245Z,1.06
2022-11-20T02:07:35.792Z,1.11
2022-11-20T02:10:38.056Z,1.12
2022-11-20T02:13:46.030Z,1.22
2022-11-20T02:16:49.550Z,1.13
2022-11-20T02:19:52.124Z,1.09
2022-11-20T02:22:57.210Z,1.20
2022-11-20T02:26:01.858Z,1.35
2022-11-20T02:29:04.744Z,1.29
2022-11-20T02:32:06.694Z,1.29
2022-11-20T02:35:10.456Z,1.35
2022-11-20T02:38:12.512Z,1.36
2022-11-20T02:41:14.678Z,1.24
2022-11-20T02:44:16.577Z,1.30
2022-11-20T02:47:18.720Z,1.43
2022-11-20T02:50:20.773Z,1.35
2022-11-20T02:53:22.989Z,1.38
2022-11-20T02:56:25.411Z,1.35
2022-11-20T02:59:27.600Z,1.44
2022-11-20T03:02:32.749Z,1.38
2022-11-20T03:05:34.948Z,1.41
2022-11-20T03:08:36.844Z,1.36
2022-11-20T03:11:38.995Z,1.48
2022-11-20T03:14:41.029Z,1.47
2022-11-20T03:17:43.243Z,1.37
2022-11-20T03:20:45.138Z,1.29
2022-11-20T03:23:47.349Z,1.25
2022-11-20T03:26:49.209Z,1.33
2022-11-20T03:29:51.329Z,1.52
2022-11-20T03:32:54.749Z,1.31
2022-11-20T03:36:01.610Z,1.31
2022-11-20T03:39:03.586Z,1.42
2022-11-20T03:42:25.754Z,1.46
2022-11-20T03:45:27.663Z,1.46
2022-11-20T03:48:30.005Z,1.54
2022-11-20T03:51:32.997Z,1.43
2022-11-20T03:54:35.229Z,1.36
2022-11-20T03:57:37.171Z,1.43
2022-11-20T04:00:39.322Z,1.59
2022-11-20T04:03:42.176Z,1.59
2022-11-20T04:06:44.108Z,1.57
2022-11-20T04:09:46.301Z,1.49
2022-11-20T04:12:48.194Z,1.48
2022-11-20T04:15:50.379Z,1.63
2022-11-20T04:18:56.347Z,1.61
2022-11-20T04:21:58.492Z,1.68
2022-11-20T04:25:00.362Z,1.65
2022-11-20T04:28:02.564Z,1.48
2022-11-20T04:31:05.784Z,1.65
2022-11-20T04:34:08.046Z,1.64
2022-11-20T04:37:09.954Z,1.62
2022-11-20T04:40:12.429Z,1.65
2022-11-20T04:43:14.350Z,1.74
2022-11-20T04:46:17.400Z,1.67
2022-11-20T04:49:19.533Z,1.60
2022-11-20T04:52:21.971Z,1.56
2022-11-20T04:55:23.859Z,1.43
2022-11-20T04:58:26.007Z,1.62
2022-11-20T05:01:27.942Z,1.47
2022-11-20T05:04:30.104Z,1.36
2022-11-20T05:07:31.993Z,1.33
2022-11-20T05:10:34.203Z,1.44
2022-11-20T05:13:36.082Z,1.51
2022-11-20T05:16:38.204Z,1.56
2022-11-20T05:19:40.120Z,1.67
2022-11-20T05:22:42.334Z,1.74
2022-11-20T05:25:44.249Z,1.65
2022-11-20T05:28:46.736Z,1.52
2022-11-20T05:31:48.656Z,1.62
2022-11-20T05:34:50.839Z,1.61
2022-11-20T05:37:52.769Z,1.67
2022-11-20T05:40:54.961Z,1.64
2022-11-20T05:43:56.965Z,1.60
2022-11-20T05:46:59.125Z,1.80
2022-11-20T05:50:01.060Z,1.89
2022-11-20T05:53:03.216Z,1.85
2022-11-20T05:56:10.904Z,1.87
2022-11-20T05:59:13.069Z,1.82
2022-11-20T06:02:15.073Z,1.86
2022-11-20T06:05:17.302Z,1.72
2022-11-20T06:08:19.177Z,1.77
2022-11-20T06:11:21.453Z,1.76
2022-11-20T06:14:23.386Z,1.77
2022-11-20T06:17:25.578Z,1.86
2022-11-20T06:20:27.490Z,1.90
2022-11-20T06:23:33.658Z,1.98
2022-11-20T06:26:35.654Z,2.07
2022-11-20T06:29:37.869Z,2.01
2022-11-20T06:32:39.772Z,1.98
2022-11-20T06:35:41.898Z,1.99
2022-11-20T06:38:44.041Z,2.01
2022-11-20T06:41:46.221Z,2.09
2022-11-20T06:44:48.194Z,2.18
2022-11-20T06:47:50.342Z,2.16
2022-11-20T06:50:52.270Z,2.39
2022-11-20T06:53:54.505Z,2.46
2022-11-20T06:56:56.402Z,2.55
2022-11-20T06:59:58.583Z,2.67
2022-11-20T07:03:03.553Z,2.77
2022-11-20T07:06:06.243Z,2.81
2022-11-20T07:09:12.580Z,2.76
2022-11-20T07:12:15.082Z,2.87
2022-11-20T07:15:17.096Z,3.01
2022-11-20T07:18:19.353Z,3.10
2022-11-20T07:21:21.423Z,3.17
2022-11-20T07:24:23.573Z,3.13
2022-11-20T07:27:25.487Z,3.14
2022-11-20T07:30:28.778Z,3.16
2022-11-20T07:33:30.738Z,2.99
2022-11-20T07:36:32.963Z,3.02
2022-11-20T07:39:34.911Z,2.77
2022-11-20T07:42:37.133Z,2.92
2022-11-20T07:45:39.014Z,2.87
2022-11-20T07:48:41.226Z,2.94
2022-11-20T07:51:43.075Z,2.96
2022-11-20T07:54:45.217Z,3.06
2022-11-20T07:57:47.118Z,3.02
2022-11-20T08:00:49.439Z,2.83
2022-11-20T08:03:51.714Z,2.92
2022-11-20T08:06:54.190Z,2.96
2022-11-20T08:09:56.374Z,3.08
2022-11-20T08:13:17.028Z,3.21
2022-11-20T08:16:19.221Z,3.25
2022-11-20T08:19:21.434Z,3.44
2022-11-20T08:22:23.958Z,3.57
2022-11-20T08:25:26.062Z,3.51
2022-11-20T08:28:28.272Z,3.67
2022-11-20T08:31:30.762Z,3.74
2022-11-20T08:34:32.941Z,3.81
2022-11-20T08:37:34.895Z,3.86
2022-11-20T08:40:37.036Z,3.94
2022-11-20T08:43:38.922Z,3.96
2022-11-20T08:46:42.085Z,4.06
2022-11-20T08:49:44.045Z,3.95
2022-11-20T08:52:46.391Z,3.88
2022-11-20T08:55:48.365Z,3.92
2022-11-20T09:02:16.265Z,4.26
2022-11-20T09:05:18.462Z,4.43
2022-11-20T09:08:20.322Z,4.45
2022-11-20T09:11:22.835Z,4.49
2022-11-20T09:14:29.963Z,4.41
2022-11-20T09:17:32.113Z,4.44
2022-11-20T09:20:34.034Z,4.56
2022-11-20T09:23:36.732Z,4.53
2022-11-20T09:26:38.601Z,4.44
2022-11-20T09:29:40.732Z,4.48
2022-11-20T09:32:42.954Z,4.48
2022-11-20T09:35:45.193Z,4.61
2022-11-20T09:38:47.544Z,4.70
2022-11-20T09:42:00.610Z,4.84
2022-11-20T09:45:16.966Z,4.89
2022-11-20T09:48:30.315Z,5.03
2022-11-20T09:51:35.057Z,5.23
2022-11-20T09:54:38.625Z,5.28
2022-11-20T09:57:43.756Z,5.06
2022-11-20T10:00:47.187Z,5.01
2022-11-20T10:04:08.044Z,4.94
2022-11-20T10:07:32.994Z,5.15
2022-11-20T10:10:46.495Z,5.10
2022-11-20T10:14:00.338Z,5.29
2022-11-20T10:17:18.232Z,5.52
2022-11-20T10:20:23.162Z,5.67
2022-11-20T10:23:34.686Z,6.02
2022-11-20T10:26:43.974Z,6.38
2022-11-20T10:29:48.671Z,6.63
2022-11-20T10:32:53.109Z,7.08
2022-11-20T10:36:02.471Z,7.49
2022-11-20T10:39:26.791Z,7.64
2022-11-20T10:42:38.666Z,7.63
2022-11-20T10:46:10.089Z,7.56
2022-11-20T10:49:13.858Z,7.46
2022-11-20T10:52:24.410Z,7.46
2022-11-20T10:55:30.935Z,7.54
2022-11-20T10:58:44.829Z,7.61
2022-11-20T11:01:47.049Z,7.61
2022-11-20T11:04:50.996Z,7.62
2022-11-20T11:07:55.138Z,7.66
2022-11-20T11:11:02.556Z,7.54
2022-11-20T11:14:08.936Z,7.43
2022-11-20T11:17:20.927Z,7.11
2022-11-20T11:20:24.742Z,7.27
2022-11-20T11:23:33.135Z,7.14
2022-11-20T11:26:35.440Z,7.18
2022-11-20T11:29:37.678Z,7.16
2022-11-20T11:32:40.130Z,7.21
2022-11-20T11:35:49.915Z,7.38
2022-11-20T11:38:54.760Z,7.45
2022-11-20T11:41:57.440Z,7.68
2022-11-20T11:45:06.896Z,7.89
2022-11-20T11:48:10.011Z,8.11
2022-11-20T11:51:12.201Z,8.06
2022-11-20T11:54:20.366Z,7.64
2022-11-20T11:57:37.902Z,7.82
2022-11-20T12:00:42.328Z,7.81
2022-11-20T12:03:47.507Z,7.83
2022-11-20T12:06:52.711Z,7.97
2022-11-20T12:09:55.668Z,8.14
2022-11-20T12:13:02.927Z,8.24
2022-11-20T12:16:05.592Z,8.35
2022-11-20T12:19:14.839Z,8.00
2022-11-20T12:22:19.788Z,7.91
2022-11-20T12:25:25.354Z,7.59
2022-11-20T12:28:27.642Z,7.19
2022-11-20T12:31:40.275Z,7.22
2022-11-20T12:34:42.386Z,7.47
2022-11-20T12:37:49.046Z,7.26
2022-11-20T12:41:12.317Z,6.89
2022-11-20T12:44:46.981Z,6.80
2022-11-20T12:48:11.702Z,7.02
2022-11-20T12:51:26.333Z,7.08
2022-11-20T12:54:47.042Z,6.98
2022-11-20T12:57:58.113Z,6.72
2022-11-20T13:01:39.250Z,6.82
2022-11-20T13:04:59.715Z,6.93
2022-11-20T13:08:03.054Z,6.77
2022-11-20T13:11:07.779Z,6.75
2022-11-20T13:14:30.151Z,6.64
2022-11-20T13:17:37.830Z,6.62
2022-11-20T13:20:43.995Z,6.65
2022-11-20T13:23:46.202Z,6.74
2022-11-20T13:26:48.456Z,6.85
2022-11-20T13:30:01.367Z,7.09
2022-11-20T13:33:07.072Z,6.89
2022-11-20T13:36:22.111Z,6.82
2022-11-20T13:39:27.357Z,6.87
2022-11-20T13:42:29.280Z,6.92
2022-11-20T13:45:33.033Z,6.93
2022-11-20T13:48:39.090Z,6.71
2022-11-20T13:51:45.049Z,6.51
2022-11-20T13:54:53.902Z,6.37
2022-11-20T13:58:05.030Z,6.11
2022-11-20T14:01:09.757Z,6.03
2022-11-20T14:04:16.539Z,5.81
2022-11-20T14:07:19.736Z,5.59
2022-11-20T14:10:28.327Z,5.47
2022-11-20T14:13:33.198Z,5.44
2022-11-20T14:16:36.252Z,5.45
2022-11-20T14:19:39.767Z,5.25
2022-11-20T14:22:49.317Z,5.19
2022-11-20T14:25:51.339Z,5.13
2022-11-20T14:28:53.544Z,5.19
2022-11-20T14:31:56.705Z,5.21
2022-11-20T14:35:09.665Z,5.21
2022-11-20T14:38:13.575Z,5.16
2022-11-20T14:41:20.039Z,5.12
2022-11-20T14:44:27.380Z,5.03
2022-11-20T14:47:31.614Z,4.98
2022-11-20T14:50:33.515Z,4.85
2022-11-20T14:53:35.697Z,4.78
2022-11-20T14:56:37.620Z,4.83
2022-11-20T14:59:39.856Z,4.73
2022-11-20T15:02:49.015Z,4.62
2022-11-20T15:05:51.681Z,4.55
2022-11-20T15:08:54.030Z,4.45
2022-11-20T15:11:57.832Z,4.36
2022-11-20T15:14:59.855Z,4.25
2022-11-20T15:18:02.869Z,4.16
2022-11-20T15:21:09.829Z,4.12
2022-11-20T15:24:12.009Z,4.05
2022-11-20T15:27:13.883Z,4.01
2022-11-20T15:30:17.827Z,3.88
2022-11-20T15:33:19.781Z,4.07
2022-11-20T15:36:21.981Z,3.95
2022-11-20T15:39:23.837Z,3.79
2022-11-20T15:42:26.078Z,3.65
2022-11-20T15:45:29.885Z,3.59
2022-11-20T15:48:37.559Z,3.57
2022-11-20T15:51:40.793Z,3.59
2022-11-20T15:54:42.963Z,3.56
2022-11-20T15:57:44.826Z,3.72
2022-11-20T16:00:47.191Z,3.84
2022-11-20T16:03:49.440Z,3.96
2022-11-20T16:06:51.330Z,4.16
2022-11-20T16:09:53.663Z,4.23
2022-11-20T16:13:14.326Z,4.24
2022-11-20T16:16:24.155Z,4.28
2022-11-20T16:19:26.047Z,4.33
2022-11-20T16:22:28.256Z,4.20
2022-11-20T16:25:30.185Z,4.37
2022-11-20T16:28:32.468Z,4.44
2022-11-20T16:31:34.691Z,4.25
2022-11-20T16:34:36.935Z,4.22
2022-11-20T16:37:39.649Z,4.14
2022-11-20T16:40:41.775Z,4.33
2022-11-20T16:43:48.934Z,4.34
2022-11-20T16:46:51.551Z,4.46
2022-11-20T16:49:53.486Z,4.21
2022-11-20T16:52:55.800Z,4.24
2022-11-20T16:55:57.702Z,4.29
2022-11-20T16:59:00.682Z,4.27
2022-11-20T17:02:02.557Z,4.34
2022-11-20T17:05:04.878Z,4.02
2022-11-20T17:08:06.728Z,3.82
2022-11-20T17:11:09.662Z,3.95
2022-11-20T17:14:12.094Z,3.86
2022-11-20T17:17:15.159Z,3.81
2022-11-20T17:20:17.050Z,3.56
2022-11-20T17:23:19.197Z,3.39
2022-11-20T17:26:22.601Z,3.30
2022-11-20T17:29:24.810Z,3.27
2022-11-20T17:32:26.714Z,3.16
2022-11-20T17:35:28.986Z,3.16
2022-11-20T17:38:30.914Z,3.08
2022-11-20T17:41:34.329Z,2.87
2022-11-20T17:44:36.257Z,2.86
2022-11-20T17:47:38.457Z,2.98
2022-11-20T17:50:40.336Z,2.83
2022-11-20T17:53:43.548Z,2.72
2022-11-20T17:57:04.060Z,2.62
2022-11-20T18:00:06.417Z,2.53
2022-11-20T18:03:09.174Z,2.48
2022-11-20T18:06:15.442Z,2.50
2022-11-20T18:09:17.619Z,2.47
2022-11-20T18:12:19.537Z,2.32
2022-11-20T18:15:21.681Z,2.17
2022-11-20T18:18:23.591Z,2.08
2022-11-20T18:21:26.583Z,2.04
2022-11-20T18:24:28.584Z,2.08
2022-11-20T18:27:30.817Z,2.01
2022-11-20T18:30:32.749Z,1.92
2022-11-20T18:33:35.069Z,1.93
2022-11-20T18:36:37.137Z,2.01
2022-11-20T18:39:39.344Z,1.96
2022-11-20T18:42:59.965Z,1.95
2022-11-20T18:46:04.959Z,2.05
2022-11-20T18:49:06.859Z,2.09
2022-11-20T18:52:09.072Z,1.97
2022-11-20T18:55:11.994Z,1.95
2022-11-20T18:58:14.159Z,1.88
2022-11-20T19:01:16.104Z,1.83
2022-11-20T19:04:18.556Z,1.72
2022-11-20T19:07:20.712Z,1.62
2022-11-20T19:10:24.287Z,1.60
2022-11-20T19:13:26.443Z,1.57
2022-11-20T19:16:28.993Z,1.57
2022-11-20T19:19:30.968Z,1.47
2022-11-20T19:22:33.172Z,1.50
2022-11-20T19:25:38.184Z,1.46
2022-11-20T19:28:40.674Z,1.39
2022-11-20T19:31:42.890Z,1.43
2022-11-20T19:34:45.057Z,1.42
2022-11-20T19:37:47.110Z,1.31
2022-11-20T19:40:49.250Z,1.27
2022-11-20T19:43:51.168Z,1.25
2022-11-20T19:46:53.364Z,1.29
2022-11-20T19:49:55.255Z,1.21
2022-11-20T19:52:58.670Z,1.14
2022-11-20T19:56:01.117Z,1.05
2022-11-20T19:59:03.414Z,1.07
2022-11-20T20:02:05.450Z,1.10
2022-11-20T20:05:07.800Z,1.13
2022-11-20T20:08:09.706Z,1.23
2022-11-20T20:11:16.304Z,1.18
2022-11-20T20:14:18.499Z,1.10
2022-11-20T20:17:20.742Z,0.95
2022-11-20T20:20:22.678Z,0.83
2022-11-20T20:23:24.884Z,0.89
2022-11-20T20:26:28.468Z,0.87
2022-11-20T20:29:30.593Z,0.82
2022-11-20T20:32:32.909Z,0.84
2022-11-20T20:35:35.098Z,0.82
2022-11-20T20:38:37.462Z,0.81
2022-11-20T20:41:39.690Z,0.82
2022-11-20T20:45:00.653Z,0.89
2022-11-20T20:48:04.659Z,0.81
2022-11-20T20:51:08.546Z,0.76
2022-11-20T20:54:10.820Z,0.77
2022-11-20T20:57:12.925Z,0.81
2022-11-20T21:00:15.421Z,0.78
2022-11-20T21:03:18.323Z,0.74
2022-11-20T21:06:20.428Z,0.66
2022-11-20T21:09:22.724Z,0.72
2022-11-20T21:12:25.245Z,0.73
2022-11-20T21:15:27.167Z,0.92
2022-11-20T21:18:29.333Z,0.85
2022-11-20T21:21:49.902Z,0.79
2022-11-20T21:24:52.054Z,0.78
2022-11-20T21:27:53.983Z,0.62
2022-11-20T21:31:16.428Z,0.59
2022-11-20T21:34:19.113Z,0.59
2022-11-20T21:37:21.246Z,0.58
2022-11-20T21:40:23.169Z,0.51
2022-11-20T21:43:25.528Z,0.56
2022-11-20T21:46:27.501Z,0.45
2022-11-20T21:49:29.689Z,0.39
2022-11-20T21:52:31.576Z,0.37
2022-11-20T21:55:34.188Z,0.47
2022-11-20T21:58:36.766Z,0.46
2022-11-20T22:01:39.004Z,0.44
2022-11-20T22:04:41.647Z,0.41
2022-11-20T22:07:44.816Z,0.44
2022-11-20T22:10:57.581Z,0.35
2022-11-20T22:14:18.346Z,0.25
2022-11-20T22:17:40.512Z,0.25
2022-11-20T22:20:42.436Z,0.26
2022-11-20T22:23:44.675Z,0.28
2022-11-20T22:26:47.658Z,0.25
2022-11-20T22:29:49.873Z,0.27
2022-11-20T22:32:54.080Z,0.37
2022-11-20T22:36:00.268Z,0.36
2022-11-20T22:39:02.545Z,0.31
2022-11-20T22:42:04.729Z,0.38
2022-11-20T22:45:06.944Z,0.20
2022-11-20T22:48:09.155Z,0.12
2022-11-20T22:51:12.932Z,0.07
2022-11-20T22:54:15.198Z,0.18
2022-11-20T22:57:17.132Z,0.11
2022-11-20T23:00:19.512Z,0.09
2022-11-20T23:03:21.498Z,0.52
2022-11-20T23:06:24.155Z,0.77
2022-11-20T23:09:26.011Z,1.11
2022-11-20T23:12:28.203Z,1.30
2022-11-20T23:15:30.145Z,1.39
2022-11-20T23:18:32.504Z,1.18
2022-11-20T23:21:35.292Z,1.08
2022-11-20T23:24:37.487Z,1.11
2022-11-20T23:27:40.624Z,1.11
2022-11-20T23:30:42.833Z,1.08
2022-11-20T23:33:45.560Z,0.90
2022-11-20T23:36:47.701Z,0.89
2022-11-20T23:39:49.642Z,0.81
2022-11-20T23:43:10.716Z,0.69
2022-11-20T23:46:16.500Z,0.68
2022-11-20T23:49:19.243Z,0.66
2022-11-20T23:52:22.079Z,0.49
2022-11-20T23:55:24.283Z,0.51
2022-11-20T23:58:26.949Z,0.47
